sensor_id;sensor_type;location;lat;lon;timestamp;P1;durP1;ratioP1;P2;durP2;ratioP2
73132;SDS011;61320;52.008;4.530;2022-12-18T00:02:05;61.86;;;55.21;;
73132;SDS011;61320;52.008;4.530;2022-12-18T00:04:31;60.08;;;54.08;;
73132;SDS011;61320;52.008;4.530;2022-12-18T00:06:56;57.87;;;52.59;;
73132;SDS011;61320;52.008;4.530;2022-12-18T00:09:22;59.25;;;53.32;;
73132;SDS011;61320;52.008;4.530;2022-12-18T00:11:48;56.49;;;51.36;;
73132;SDS011;61320;52.008;4.530;2022-12-18T00:14:14;57.20;;;51.82;;
73132;SDS011;61320;52.008;4.530;2022-12-18T00:16:40;58.95;;;53.30;;
73132;SDS011;61320;52.008;4.530;2022-12-18T00:19:20;60.01;;;53.64;;
73132;SDS011;61320;52.008;4.530;2022-12-18T00:21:53;60.94;;;53.96;;
73132;SDS011;61320;52.008;4.530;2022-12-18T00:24:28;61.73;;;54.68;;
73132;SDS011;61320;52.008;4.530;2022-12-18T00:27:04;63.41;;;55.62;;
73132;SDS011;61320;52.008;4.530;2022-12-18T00:29:33;60.98;;;54.24;;
73132;SDS011;61320;52.008;4.530;2022-12-18T00:32:05;63.30;;;55.38;;
73132;SDS011;61320;52.008;4.530;2022-12-18T00:34:30;62.63;;;54.68;;
73132;SDS011;61320;52.008;4.530;2022-12-18T00:36:56;61.97;;;54.54;;
73132;SDS011;61320;52.008;4.530;2022-12-18T00:39:21;62.95;;;55.41;;
73132;SDS011;61320;52.008;4.530;2022-12-18T00:41:47;65.16;;;56.46;;
73132;SDS011;61320;52.008;4.530;2022-12-18T00:44:31;65.71;;;57.19;;
73132;SDS011;61320;52.008;4.530;2022-12-18T00:46:56;64.09;;;56.17;;
73132;SDS011;61320;52.008;4.530;2022-12-18T00:49:22;65.60;;;56.82;;
73132;SDS011;61320;52.008;4.530;2022-12-18T00:51:48;63.61;;;55.68;;
73132;SDS011;61320;52.008;4.530;2022-12-18T00:54:14;65.29;;;57.00;;
73132;SDS011;61320;52.008;4.530;2022-12-18T00:56:40;66.49;;;56.93;;
73132;SDS011;61320;52.008;4.530;2022-12-18T00:59:06;62.93;;;55.29;;
73132;SDS011;61320;52.008;4.530;2022-12-18T01:01:32;64.60;;;56.25;;
73132;SDS011;61320;52.008;4.530;2022-12-18T01:03:58;65.18;;;56.33;;
73132;SDS011;61320;52.008;4.530;2022-12-18T01:06:25;63.72;;;55.65;;
73132;SDS011;61320;52.008;4.530;2022-12-18T01:08:50;62.88;;;55.02;;
73132;SDS011;61320;52.008;4.530;2022-12-18T01:11:17;63.14;;;55.16;;
73132;SDS011;61320;52.008;4.530;2022-12-18T01:13:45;63.11;;;55.99;;
73132;SDS011;61320;52.008;4.530;2022-12-18T01:16:11;61.34;;;53.85;;
73132;SDS011;61320;52.008;4.530;2022-12-18T01:18:38;62.17;;;54.23;;
73132;SDS011;61320;52.008;4.530;2022-12-18T01:21:07;60.95;;;54.09;;
73132;SDS011;61320;52.008;4.530;2022-12-18T01:23:34;62.12;;;55.30;;
73132;SDS011;61320;52.008;4.530;2022-12-18T01:26:04;60.94;;;54.49;;
73132;SDS011;61320;52.008;4.530;2022-12-18T01:28:34;60.26;;;53.58;;
73132;SDS011;61320;52.008;4.530;2022-12-18T01:31:11;61.23;;;54.85;;
73132;SDS011;61320;52.008;4.530;2022-12-18T01:33:43;59.07;;;53.02;;
73132;SDS011;61320;52.008;4.530;2022-12-18T01:36:14;62.25;;;54.58;;
73132;SDS011;61320;52.008;4.530;2022-12-18T01:38:50;63.36;;;55.38;;
73132;SDS011;61320;52.008;4.530;2022-12-18T01:41:22;62.76;;;54.87;;
73132;SDS011;61320;52.008;4.530;2022-12-18T01:46:16;64.33;;;56.43;;
73132;SDS011;61320;52.008;4.530;2022-12-18T01:48:44;60.73;;;54.10;;
73132;SDS011;61320;52.008;4.530;2022-12-18T01:51:13;63.49;;;55.98;;
73132;SDS011;61320;52.008;4.530;2022-12-18T01:53:42;62.56;;;54.81;;
73132;SDS011;61320;52.008;4.530;2022-12-18T01:56:18;60.47;;;53.52;;
73132;SDS011;61320;52.008;4.530;2022-12-18T02:01:34;58.66;;;52.61;;
73132;SDS011;61320;52.008;4.530;2022-12-18T02:06:54;58.36;;;52.33;;
73132;SDS011;61320;52.008;4.530;2022-12-18T02:09:34;57.79;;;51.31;;
73132;SDS011;61320;52.008;4.530;2022-12-18T02:12:22;57.69;;;51.91;;
73132;SDS011;61320;52.008;4.530;2022-12-18T02:15:00;55.07;;;50.13;;
73132;SDS011;61320;52.008;4.530;2022-12-18T02:17:43;53.59;;;48.62;;
73132;SDS011;61320;52.008;4.530;2022-12-18T02:23:24;51.24;;;46.99;;
73132;SDS011;61320;52.008;4.530;2022-12-18T02:28:56;50.24;;;46.45;;
73132;SDS011;61320;52.008;4.530;2022-12-18T02:31:36;51.75;;;46.94;;
73132;SDS011;61320;52.008;4.530;2022-12-18T02:34:08;52.39;;;47.32;;
73132;SDS011;61320;52.008;4.530;2022-12-18T02:36:38;50.91;;;46.68;;
73132;SDS011;61320;52.008;4.530;2022-12-18T02:39:09;49.32;;;45.35;;
73132;SDS011;61320;52.008;4.530;2022-12-18T02:41:37;51.08;;;46.70;;
73132;SDS011;61320;52.008;4.530;2022-12-18T02:44:07;49.31;;;45.50;;
73132;SDS011;61320;52.008;4.530;2022-12-18T02:46:38;50.79;;;46.55;;
73132;SDS011;61320;52.008;4.530;2022-12-18T02:51:48;49.58;;;45.27;;
73132;SDS011;61320;52.008;4.530;2022-12-18T03:00:37;47.17;;;43.93;;
73132;SDS011;61320;52.008;4.530;2022-12-18T03:03:51;49.66;;;45.68;;
73132;SDS011;61320;52.008;4.530;2022-12-18T03:06:02;48.75;;;45.10;;
73132;SDS011;61320;52.008;4.530;2022-12-18T03:08:34;49.81;;;45.66;;
73132;SDS011;61320;52.008;4.530;2022-12-18T03:11:06;47.86;;;44.22;;
73132;SDS011;61320;52.008;4.530;2022-12-18T03:13:36;49.15;;;45.65;;
73132;SDS011;61320;52.008;4.530;2022-12-18T03:16:12;47.94;;;44.65;;
73132;SDS011;61320;52.008;4.530;2022-12-18T03:18:49;47.04;;;43.87;;
73132;SDS011;61320;52.008;4.530;2022-12-18T03:21:30;47.71;;;43.95;;
73132;SDS011;61320;52.008;4.530;2022-12-18T03:24:06;48.65;;;44.71;;
73132;SDS011;61320;52.008;4.530;2022-12-18T03:26:34;49.13;;;45.18;;
73132;SDS011;61320;52.008;4.530;2022-12-18T03:29:10;50.60;;;45.84;;
73132;SDS011;61320;52.008;4.530;2022-12-18T03:31:45;50.17;;;45.62;;
73132;SDS011;61320;52.008;4.530;2022-12-18T03:34:29;51.17;;;46.39;;
73132;SDS011;61320;52.008;4.530;2022-12-18T03:37:02;51.75;;;47.01;;
73132;SDS011;61320;52.008;4.530;2022-12-18T03:39:28;50.56;;;46.50;;
73132;SDS011;61320;52.008;4.530;2022-12-18T03:49:56;54.21;;;48.75;;
73132;SDS011;61320;52.008;4.530;2022-12-18T03:52:44;53.66;;;47.72;;
73132;SDS011;61320;52.008;4.530;2022-12-18T03:55:14;50.81;;;46.36;;
73132;SDS011;61320;52.008;4.530;2022-12-18T03:57:41;51.25;;;46.75;;
73132;SDS011;61320;52.008;4.530;2022-12-18T04:00:13;51.00;;;46.76;;
73132;SDS011;61320;52.008;4.530;2022-12-18T04:02:45;51.73;;;46.73;;
73132;SDS011;61320;52.008;4.530;2022-12-18T04:05:17;51.07;;;46.48;;
73132;SDS011;61320;52.008;4.530;2022-12-18T04:07:46;50.83;;;46.31;;
73132;SDS011;61320;52.008;4.530;2022-12-18T04:10:13;51.43;;;46.97;;
73132;SDS011;61320;52.008;4.530;2022-12-18T04:12:41;55.21;;;49.27;;
73132;SDS011;61320;52.008;4.530;2022-12-18T04:15:07;53.09;;;48.08;;
73132;SDS011;61320;52.008;4.530;2022-12-18T04:17:34;51.38;;;46.99;;
73132;SDS011;61320;52.008;4.530;2022-12-18T04:19:59;51.04;;;47.05;;
73132;SDS011;61320;52.008;4.530;2022-12-18T04:22:25;51.42;;;47.23;;
73132;SDS011;61320;52.008;4.530;2022-12-18T04:24:50;49.53;;;45.57;;
73132;SDS011;61320;52.008;4.530;2022-12-18T04:27:16;48.52;;;45.08;;
73132;SDS011;61320;52.008;4.530;2022-12-18T04:29:41;50.29;;;46.10;;
73132;SDS011;61320;52.008;4.530;2022-12-18T04:32:07;49.32;;;45.48;;
73132;SDS011;61320;52.008;4.530;2022-12-18T04:34:33;47.73;;;44.28;;
73132;SDS011;61320;52.008;4.530;2022-12-18T04:36:59;49.06;;;45.56;;
73132;SDS011;61320;52.008;4.530;2022-12-18T04:39:24;47.86;;;44.59;;
73132;SDS011;61320;52.008;4.530;2022-12-18T04:41:50;49.09;;;45.28;;
73132;SDS011;61320;52.008;4.530;2022-12-18T04:44:15;47.82;;;44.26;;
73132;SDS011;61320;52.008;4.530;2022-12-18T04:46:41;47.37;;;44.60;;
73132;SDS011;61320;52.008;4.530;2022-12-18T04:49:06;47.31;;;44.47;;
73132;SDS011;61320;52.008;4.530;2022-12-18T04:51:32;46.33;;;43.73;;
73132;SDS011;61320;52.008;4.530;2022-12-18T04:53:57;46.76;;;43.92;;
73132;SDS011;61320;52.008;4.530;2022-12-18T04:56:23;47.52;;;44.21;;
73132;SDS011;61320;52.008;4.530;2022-12-18T04:58:49;46.90;;;43.94;;
73132;SDS011;61320;52.008;4.530;2022-12-18T05:01:15;47.10;;;43.99;;
73132;SDS011;61320;52.008;4.530;2022-12-18T05:03:43;45.78;;;43.03;;
73132;SDS011;61320;52.008;4.530;2022-12-18T05:06:08;44.19;;;41.59;;
73132;SDS011;61320;52.008;4.530;2022-12-18T05:08:34;44.20;;;41.85;;
73132;SDS011;61320;52.008;4.530;2022-12-18T05:11:01;46.04;;;43.08;;
73132;SDS011;61320;52.008;4.530;2022-12-18T05:13:32;45.23;;;42.40;;
73132;SDS011;61320;52.008;4.530;2022-12-18T05:15:58;45.41;;;42.59;;
73132;SDS011;61320;52.008;4.530;2022-12-18T05:18:25;45.65;;;42.70;;
73132;SDS011;61320;52.008;4.530;2022-12-18T05:20:51;44.39;;;41.76;;
73132;SDS011;61320;52.008;4.530;2022-12-18T05:23:18;44.12;;;41.68;;
73132;SDS011;61320;52.008;4.530;2022-12-18T05:25:53;43.04;;;40.78;;
73132;SDS011;61320;52.008;4.530;2022-12-18T05:28:20;45.03;;;42.31;;
73132;SDS011;61320;52.008;4.530;2022-12-18T05:30:48;45.24;;;42.49;;
73132;SDS011;61320;52.008;4.530;2022-12-18T05:33:14;47.73;;;44.97;;
73132;SDS011;61320;52.008;4.530;2022-12-18T05:35:40;48.67;;;45.63;;
73132;SDS011;61320;52.008;4.530;2022-12-18T05:38:05;48.55;;;45.79;;
73132;SDS011;61320;52.008;4.530;2022-12-18T05:40:31;46.58;;;44.26;;
73132;SDS011;61320;52.008;4.530;2022-12-18T05:42:56;47.82;;;45.38;;
73132;SDS011;61320;52.008;4.530;2022-12-18T05:45:22;48.39;;;45.83;;
73132;SDS011;61320;52.008;4.530;2022-12-18T05:47:47;49.31;;;46.53;;
73132;SDS011;61320;52.008;4.530;2022-12-18T05:50:12;49.11;;;46.13;;
73132;SDS011;61320;52.008;4.530;2022-12-18T05:52:38;49.00;;;46.04;;
73132;SDS011;61320;52.008;4.530;2022-12-18T05:55:04;49.28;;;46.07;;
73132;SDS011;61320;52.008;4.530;2022-12-18T05:57:30;49.31;;;46.94;;
73132;SDS011;61320;52.008;4.530;2022-12-18T05:59:55;48.48;;;46.26;;
73132;SDS011;61320;52.008;4.530;2022-12-18T06:02:21;49.37;;;47.10;;
73132;SDS011;61320;52.008;4.530;2022-12-18T06:04:46;47.61;;;45.52;;
73132;SDS011;61320;52.008;4.530;2022-12-18T06:07:12;48.56;;;46.30;;
73132;SDS011;61320;52.008;4.530;2022-12-18T06:09:37;48.59;;;46.18;;
73132;SDS011;61320;52.008;4.530;2022-12-18T06:12:03;47.39;;;45.35;;
73132;SDS011;61320;52.008;4.530;2022-12-18T06:14:29;48.77;;;46.48;;
73132;SDS011;61320;52.008;4.530;2022-12-18T06:16:54;47.27;;;45.21;;
73132;SDS011;61320;52.008;4.530;2022-12-18T06:19:20;46.81;;;44.60;;
73132;SDS011;61320;52.008;4.530;2022-12-18T06:21:45;45.62;;;43.65;;
73132;SDS011;61320;52.008;4.530;2022-12-18T06:24:11;47.00;;;45.02;;
73132;SDS011;61320;52.008;4.530;2022-12-18T06:26:37;46.49;;;44.51;;
73132;SDS011;61320;52.008;4.530;2022-12-18T06:29:04;47.78;;;45.46;;
73132;SDS011;61320;52.008;4.530;2022-12-18T06:31:29;47.17;;;45.24;;
73132;SDS011;61320;52.008;4.530;2022-12-18T06:33:55;46.45;;;44.56;;
73132;SDS011;61320;52.008;4.530;2022-12-18T06:36:21;45.27;;;43.20;;
73132;SDS011;61320;52.008;4.530;2022-12-18T06:38:46;47.39;;;45.73;;
73132;SDS011;61320;52.008;4.530;2022-12-18T06:41:13;48.51;;;46.23;;
73132;SDS011;61320;52.008;4.530;2022-12-18T06:43:41;48.00;;;45.82;;
73132;SDS011;61320;52.008;4.530;2022-12-18T06:46:07;47.98;;;45.71;;
73132;SDS011;61320;52.008;4.530;2022-12-18T06:48:33;46.95;;;44.48;;
73132;SDS011;61320;52.008;4.530;2022-12-18T06:50:59;46.61;;;44.47;;
73132;SDS011;61320;52.008;4.530;2022-12-18T06:53:25;47.06;;;45.38;;
73132;SDS011;61320;52.008;4.530;2022-12-18T06:55:51;46.41;;;44.37;;
73132;SDS011;61320;52.008;4.530;2022-12-18T06:58:17;45.81;;;44.02;;
73132;SDS011;61320;52.008;4.530;2022-12-18T07:00:42;44.41;;;42.41;;
73132;SDS011;61320;52.008;4.530;2022-12-18T07:03:08;45.48;;;43.49;;
73132;SDS011;61320;52.008;4.530;2022-12-18T07:05:33;44.70;;;42.96;;
73132;SDS011;61320;52.008;4.530;2022-12-18T07:07:59;42.98;;;41.50;;
73132;SDS011;61320;52.008;4.530;2022-12-18T07:10:25;43.82;;;42.54;;
73132;SDS011;61320;52.008;4.530;2022-12-18T07:12:50;42.13;;;40.83;;
73132;SDS011;61320;52.008;4.530;2022-12-18T07:15:16;42.15;;;40.62;;
73132;SDS011;61320;52.008;4.530;2022-12-18T07:17:41;41.58;;;40.33;;
73132;SDS011;61320;52.008;4.530;2022-12-18T07:20:07;42.01;;;40.55;;
73132;SDS011;61320;52.008;4.530;2022-12-18T07:22:33;42.03;;;40.91;;
73132;SDS011;61320;52.008;4.530;2022-12-18T07:24:59;41.67;;;40.48;;
73132;SDS011;61320;52.008;4.530;2022-12-18T07:27:24;40.08;;;38.63;;
73132;SDS011;61320;52.008;4.530;2022-12-18T07:29:50;39.31;;;38.26;;
73132;SDS011;61320;52.008;4.530;2022-12-18T07:32:15;39.04;;;37.97;;
73132;SDS011;61320;52.008;4.530;2022-12-18T07:34:41;40.02;;;39.00;;
73132;SDS011;61320;52.008;4.530;2022-12-18T07:37:07;39.08;;;37.73;;
73132;SDS011;61320;52.008;4.530;2022-12-18T07:39:33;38.99;;;37.79;;
73132;SDS011;61320;52.008;4.530;2022-12-18T07:41:58;39.68;;;38.49;;
73132;SDS011;61320;52.008;4.530;2022-12-18T07:44:42;38.17;;;36.98;;
73132;SDS011;61320;52.008;4.530;2022-12-18T07:47:08;38.87;;;37.82;;
73132;SDS011;61320;52.008;4.530;2022-12-18T07:49:34;38.51;;;37.58;;
73132;SDS011;61320;52.008;4.530;2022-12-18T07:51:59;37.12;;;36.26;;
73132;SDS011;61320;52.008;4.530;2022-12-18T07:54:25;37.20;;;36.26;;
73132;SDS011;61320;52.008;4.530;2022-12-18T07:56:50;36.35;;;35.43;;
73132;SDS011;61320;52.008;4.530;2022-12-18T07:59:17;36.51;;;35.62;;
73132;SDS011;61320;52.008;4.530;2022-12-18T08:01:43;38.12;;;37.13;;
73132;SDS011;61320;52.008;4.530;2022-12-18T08:04:08;37.02;;;35.80;;
73132;SDS011;61320;52.008;4.530;2022-12-18T08:06:34;37.82;;;36.71;;
73132;SDS011;61320;52.008;4.530;2022-12-18T08:09:00;37.59;;;36.67;;
73132;SDS011;61320;52.008;4.530;2022-12-18T08:11:26;35.86;;;34.90;;
73132;SDS011;61320;52.008;4.530;2022-12-18T08:13:53;36.48;;;35.60;;
73132;SDS011;61320;52.008;4.530;2022-12-18T08:16:19;35.71;;;34.99;;
73132;SDS011;61320;52.008;4.530;2022-12-18T08:18:46;36.27;;;35.21;;
73132;SDS011;61320;52.008;4.530;2022-12-18T08:21:16;35.04;;;34.06;;
73132;SDS011;61320;52.008;4.530;2022-12-18T08:23:44;34.88;;;33.95;;
73132;SDS011;61320;52.008;4.530;2022-12-18T08:26:10;34.93;;;33.96;;
73132;SDS011;61320;52.008;4.530;2022-12-18T08:28:36;34.25;;;33.47;;
73132;SDS011;61320;52.008;4.530;2022-12-18T08:31:02;34.40;;;33.68;;
73132;SDS011;61320;52.008;4.530;2022-12-18T08:33:28;34.73;;;33.83;;
73132;SDS011;61320;52.008;4.530;2022-12-18T08:35:53;33.44;;;32.72;;
73132;SDS011;61320;52.008;4.530;2022-12-18T08:38:19;33.73;;;32.99;;
73132;SDS011;61320;52.008;4.530;2022-12-18T08:40:44;33.23;;;32.34;;
73132;SDS011;61320;52.008;4.530;2022-12-18T08:43:10;34.25;;;33.36;;
73132;SDS011;61320;52.008;4.530;2022-12-18T08:45:54;37.95;;;37.08;;
73132;SDS011;61320;52.008;4.530;2022-12-18T08:48:19;38.78;;;37.50;;
73132;SDS011;61320;52.008;4.530;2022-12-18T08:50:55;39.51;;;38.26;;
73132;SDS011;61320;52.008;4.530;2022-12-18T08:53:25;37.55;;;36.44;;
73132;SDS011;61320;52.008;4.530;2022-12-18T08:55:52;33.00;;;32.25;;
73132;SDS011;61320;52.008;4.530;2022-12-18T08:58:18;32.08;;;31.31;;
73132;SDS011;61320;52.008;4.530;2022-12-18T09:00:44;32.14;;;31.21;;
73132;SDS011;61320;52.008;4.530;2022-12-18T09:03:13;31.79;;;30.92;;
73132;SDS011;61320;52.008;4.530;2022-12-18T09:05:41;30.33;;;29.63;;
73132;SDS011;61320;52.008;4.530;2022-12-18T09:08:07;30.50;;;29.92;;
73132;SDS011;61320;52.008;4.530;2022-12-18T09:10:32;30.89;;;30.26;;
73132;SDS011;61320;52.008;4.530;2022-12-18T09:12:59;31.01;;;30.25;;
73132;SDS011;61320;52.008;4.530;2022-12-18T09:15:24;30.39;;;29.63;;
73132;SDS011;61320;52.008;4.530;2022-12-18T09:17:50;30.60;;;30.09;;
73132;SDS011;61320;52.008;4.530;2022-12-18T09:20:18;31.38;;;30.50;;
73132;SDS011;61320;52.008;4.530;2022-12-18T09:22:44;32.66;;;31.77;;
73132;SDS011;61320;52.008;4.530;2022-12-18T09:25:09;31.76;;;30.94;;
73132;SDS011;61320;52.008;4.530;2022-12-18T09:27:35;31.09;;;30.32;;
73132;SDS011;61320;52.008;4.530;2022-12-18T09:30:01;31.36;;;30.54;;
73132;SDS011;61320;52.008;4.530;2022-12-18T09:32:27;31.40;;;30.68;;
73132;SDS011;61320;52.008;4.530;2022-12-18T09:34:52;31.24;;;30.63;;
73132;SDS011;61320;52.008;4.530;2022-12-18T09:37:18;31.71;;;30.83;;
73132;SDS011;61320;52.008;4.530;2022-12-18T09:39:43;31.13;;;30.52;;
73132;SDS011;61320;52.008;4.530;2022-12-18T09:42:14;32.47;;;31.58;;
73132;SDS011;61320;52.008;4.530;2022-12-18T09:44:48;32.70;;;32.06;;
73132;SDS011;61320;52.008;4.530;2022-12-18T09:47:23;32.19;;;31.72;;
73132;SDS011;61320;52.008;4.530;2022-12-18T09:49:59;34.42;;;33.63;;
73132;SDS011;61320;52.008;4.530;2022-12-18T09:52:39;32.17;;;31.62;;
73132;SDS011;61320;52.008;4.530;2022-12-18T09:55:28;31.97;;;31.18;;
73132;SDS011;61320;52.008;4.530;2022-12-18T09:58:06;32.46;;;31.79;;
73132;SDS011;61320;52.008;4.530;2022-12-18T10:00:37;31.24;;;30.64;;
73132;SDS011;61320;52.008;4.530;2022-12-18T10:03:12;31.03;;;30.45;;
73132;SDS011;61320;52.008;4.530;2022-12-18T10:05:54;32.23;;;31.47;;
73132;SDS011;61320;52.008;4.530;2022-12-18T10:19:59;32.53;;;31.84;;
73132;SDS011;61320;52.008;4.530;2022-12-18T10:22:37;32.41;;;31.57;;
73132;SDS011;61320;52.008;4.530;2022-12-18T10:28:20;32.31;;;31.62;;
73132;SDS011;61320;52.008;4.530;2022-12-18T10:30:48;31.88;;;31.25;;
73132;SDS011;61320;52.008;4.530;2022-12-18T10:33:18;32.09;;;31.36;;
73132;SDS011;61320;52.008;4.530;2022-12-18T10:35:49;32.42;;;31.61;;
73132;SDS011;61320;52.008;4.530;2022-12-18T10:38:20;32.67;;;31.82;;
73132;SDS011;61320;52.008;4.530;2022-12-18T10:40:48;32.47;;;31.63;;
73132;SDS011;61320;52.008;4.530;2022-12-18T10:43:15;32.08;;;31.45;;
73132;SDS011;61320;52.008;4.530;2022-12-18T10:45:57;31.76;;;30.97;;
73132;SDS011;61320;52.008;4.530;2022-12-18T10:48:24;30.65;;;30.17;;
73132;SDS011;61320;52.008;4.530;2022-12-18T10:50:50;31.58;;;30.77;;
73132;SDS011;61320;52.008;4.530;2022-12-18T10:53:22;31.14;;;30.38;;
73132;SDS011;61320;52.008;4.530;2022-12-18T10:55:49;31.26;;;30.58;;
73132;SDS011;61320;52.008;4.530;2022-12-18T10:58:29;31.67;;;30.75;;
73132;SDS011;61320;52.008;4.530;2022-12-18T11:03:35;30.41;;;29.62;;
73132;SDS011;61320;52.008;4.530;2022-12-18T11:06:09;30.34;;;29.71;;
73132;SDS011;61320;52.008;4.530;2022-12-18T11:08:37;30.08;;;29.50;;
73132;SDS011;61320;52.008;4.530;2022-12-18T11:11:04;31.40;;;31.05;;
73132;SDS011;61320;52.008;4.530;2022-12-18T11:16:36;35.11;;;33.89;;
73132;SDS011;61320;52.008;4.530;2022-12-18T11:19:17;35.50;;;34.45;;
73132;SDS011;61320;52.008;4.530;2022-12-18T11:21:49;37.91;;;36.90;;
73132;SDS011;61320;52.008;4.530;2022-12-18T11:24:20;34.50;;;34.00;;
73132;SDS011;61320;52.008;4.530;2022-12-18T11:27:01;33.53;;;32.85;;
73132;SDS011;61320;52.008;4.530;2022-12-18T11:29:39;31.59;;;31.08;;
73132;SDS011;61320;52.008;4.530;2022-12-18T11:34:39;31.75;;;30.88;;
73132;SDS011;61320;52.008;4.530;2022-12-18T11:37:11;33.32;;;32.55;;
73132;SDS011;61320;52.008;4.530;2022-12-18T11:39:41;35.77;;;34.84;;
73132;SDS011;61320;52.008;4.530;2022-12-18T11:42:17;36.06;;;35.09;;
73132;SDS011;61320;52.008;4.530;2022-12-18T11:50:11;38.25;;;37.13;;
73132;SDS011;61320;52.008;4.530;2022-12-18T11:52:41;34.13;;;33.54;;
73132;SDS011;61320;52.008;4.530;2022-12-18T11:55:10;35.27;;;34.30;;
73132;SDS011;61320;52.008;4.530;2022-12-18T11:57:42;36.36;;;35.35;;
73132;SDS011;61320;52.008;4.530;2022-12-18T12:00:22;35.16;;;33.99;;
73132;SDS011;61320;52.008;4.530;2022-12-18T12:08:49;35.38;;;34.51;;
73132;SDS011;61320;52.008;4.530;2022-12-18T12:11:39;34.31;;;33.47;;
73132;SDS011;61320;52.008;4.530;2022-12-18T12:17:37;32.83;;;31.98;;
73132;SDS011;61320;52.008;4.530;2022-12-18T12:25:31;32.28;;;31.41;;
73132;SDS011;61320;52.008;4.530;2022-12-18T12:39:44;32.14;;;31.29;;
73132;SDS011;61320;52.008;4.530;2022-12-18T12:42:26;32.17;;;31.31;;
73132;SDS011;61320;52.008;4.530;2022-12-18T12:45:20;31.04;;;30.18;;
73132;SDS011;61320;52.008;4.530;2022-12-18T12:47:53;31.47;;;30.66;;
73132;SDS011;61320;52.008;4.530;2022-12-18T12:50:22;32.40;;;31.55;;
73132;SDS011;61320;52.008;4.530;2022-12-18T12:52:51;31.72;;;30.90;;
73132;SDS011;61320;52.008;4.530;2022-12-18T12:55:21;31.44;;;30.56;;
73132;SDS011;61320;52.008;4.530;2022-12-18T12:57:55;31.49;;;30.64;;
73132;SDS011;61320;52.008;4.530;2022-12-18T13:00:36;31.86;;;31.01;;
73132;SDS011;61320;52.008;4.530;2022-12-18T13:05:54;32.96;;;32.04;;
73132;SDS011;61320;52.008;4.530;2022-12-18T13:08:30;33.28;;;32.22;;
73132;SDS011;61320;52.008;4.530;2022-12-18T13:10:58;32.70;;;31.92;;
73132;SDS011;61320;52.008;4.530;2022-12-18T13:13:50;32.48;;;31.86;;
73132;SDS011;61320;52.008;4.530;2022-12-18T13:16:22;33.49;;;32.79;;
73132;SDS011;61320;52.008;4.530;2022-12-18T13:18:51;33.65;;;32.75;;
73132;SDS011;61320;52.008;4.530;2022-12-18T13:21:21;33.85;;;33.30;;
73132;SDS011;61320;52.008;4.530;2022-12-18T13:27:04;32.95;;;32.18;;
73132;SDS011;61320;52.008;4.530;2022-12-18T13:30:22;33.23;;;32.24;;
73132;SDS011;61320;52.008;4.530;2022-12-18T13:35:42;33.47;;;32.84;;
73132;SDS011;61320;52.008;4.530;2022-12-18T13:38:20;33.79;;;32.76;;
73132;SDS011;61320;52.008;4.530;2022-12-18T13:45:43;33.88;;;33.21;;
73132;SDS011;61320;52.008;4.530;2022-12-18T13:48:16;37.78;;;36.80;;
73132;SDS011;61320;52.008;4.530;2022-12-18T13:50:57;36.14;;;35.09;;
73132;SDS011;61320;52.008;4.530;2022-12-18T13:53:39;33.81;;;33.16;;
73132;SDS011;61320;52.008;4.530;2022-12-18T13:56:16;35.18;;;34.02;;
73132;SDS011;61320;52.008;4.530;2022-12-18T14:01:30;32.91;;;31.91;;
73132;SDS011;61320;52.008;4.530;2022-12-18T14:04:12;34.25;;;33.18;;
73132;SDS011;61320;52.008;4.530;2022-12-18T14:06:46;33.74;;;32.93;;
73132;SDS011;61320;52.008;4.530;2022-12-18T14:09:18;35.38;;;34.56;;
73132;SDS011;61320;52.008;4.530;2022-12-18T14:11:51;36.20;;;34.94;;
73132;SDS011;61320;52.008;4.530;2022-12-18T14:14:40;35.36;;;34.31;;
73132;SDS011;61320;52.008;4.530;2022-12-18T14:17:12;34.51;;;33.57;;
73132;SDS011;61320;52.008;4.530;2022-12-18T14:19:46;34.15;;;33.47;;
73132;SDS011;61320;52.008;4.530;2022-12-18T14:22:16;34.21;;;33.73;;
73132;SDS011;61320;52.008;4.530;2022-12-18T14:24:44;34.35;;;33.68;;
73132;SDS011;61320;52.008;4.530;2022-12-18T14:27:24;33.31;;;32.76;;
73132;SDS011;61320;52.008;4.530;2022-12-18T14:29:50;34.03;;;33.13;;
73132;SDS011;61320;52.008;4.530;2022-12-18T14:32:20;33.80;;;33.00;;
73132;SDS011;61320;52.008;4.530;2022-12-18T14:37:17;34.27;;;33.50;;
73132;SDS011;61320;52.008;4.530;2022-12-18T14:39:55;34.28;;;33.46;;
73132;SDS011;61320;52.008;4.530;2022-12-18T14:42:23;34.70;;;33.77;;
73132;SDS011;61320;52.008;4.530;2022-12-18T14:48:18;35.70;;;34.60;;
73132;SDS011;61320;52.008;4.530;2022-12-18T14:50:44;36.03;;;34.87;;
73132;SDS011;61320;52.008;4.530;2022-12-18T14:53:33;34.95;;;34.05;;
73132;SDS011;61320;52.008;4.530;2022-12-18T14:56:03;34.43;;;33.51;;
73132;SDS011;61320;52.008;4.530;2022-12-18T14:58:47;34.79;;;33.97;;
73132;SDS011;61320;52.008;4.530;2022-12-18T15:01:20;35.30;;;34.19;;
73132;SDS011;61320;52.008;4.530;2022-12-18T15:03:51;34.69;;;33.69;;
73132;SDS011;61320;52.008;4.530;2022-12-18T15:06:25;33.78;;;33.16;;
73132;SDS011;61320;52.008;4.530;2022-12-18T15:09:00;36.22;;;35.23;;
73132;SDS011;61320;52.008;4.530;2022-12-18T15:11:46;36.82;;;35.74;;
73132;SDS011;61320;52.008;4.530;2022-12-18T15:16:58;38.93;;;37.75;;
73132;SDS011;61320;52.008;4.530;2022-12-18T15:19:48;37.85;;;36.82;;
73132;SDS011;61320;52.008;4.530;2022-12-18T15:22:17;36.96;;;35.90;;
73132;SDS011;61320;52.008;4.530;2022-12-18T15:24:46;36.79;;;35.56;;
73132;SDS011;61320;52.008;4.530;2022-12-18T15:27:46;36.09;;;35.00;;
73132;SDS011;61320;52.008;4.530;2022-12-18T15:32:43;35.87;;;34.81;;
73132;SDS011;61320;52.008;4.530;2022-12-18T15:37:36;35.84;;;35.13;;
73132;SDS011;61320;52.008;4.530;2022-12-18T15:40:22;35.51;;;34.61;;
73132;SDS011;61320;52.008;4.530;2022-12-18T15:42:49;35.62;;;34.85;;
73132;SDS011;61320;52.008;4.530;2022-12-18T15:45:37;36.34;;;35.50;;
73132;SDS011;61320;52.008;4.530;2022-12-18T15:48:10;36.29;;;35.09;;
73132;SDS011;61320;52.008;4.530;2022-12-18T15:50:48;35.97;;;34.99;;
73132;SDS011;61320;52.008;4.530;2022-12-18T15:53:18;36.55;;;35.82;;
73132;SDS011;61320;52.008;4.530;2022-12-18T15:55:44;36.03;;;35.33;;
73132;SDS011;61320;52.008;4.530;2022-12-18T15:58:28;35.87;;;35.05;;
73132;SDS011;61320;52.008;4.530;2022-12-18T16:00:53;35.65;;;35.10;;
73132;SDS011;61320;52.008;4.530;2022-12-18T16:03:23;36.77;;;35.99;;
73132;SDS011;61320;52.008;4.530;2022-12-18T16:05:48;39.56;;;38.52;;
73132;SDS011;61320;52.008;4.530;2022-12-18T16:08:13;41.05;;;39.88;;
73132;SDS011;61320;52.008;4.530;2022-12-18T16:10:39;41.75;;;40.68;;
73132;SDS011;61320;52.008;4.530;2022-12-18T16:13:05;38.10;;;37.27;;
73132;SDS011;61320;52.008;4.530;2022-12-18T16:15:34;36.12;;;35.01;;
73132;SDS011;61320;52.008;4.530;2022-12-18T16:17:59;37.87;;;36.73;;
73132;SDS011;61320;52.008;4.530;2022-12-18T16:20:25;33.87;;;33.10;;
73132;SDS011;61320;52.008;4.530;2022-12-18T16:22:50;33.83;;;33.13;;
73132;SDS011;61320;52.008;4.530;2022-12-18T16:25:18;33.89;;;33.32;;
73132;SDS011;61320;52.008;4.530;2022-12-18T16:27:52;34.30;;;33.09;;
73132;SDS011;61320;52.008;4.530;2022-12-18T16:30:27;34.91;;;33.90;;
73132;SDS011;61320;52.008;4.530;2022-12-18T16:32:55;33.37;;;32.65;;
73132;SDS011;61320;52.008;4.530;2022-12-18T16:35:22;34.21;;;33.18;;